createdAt,value
2019-04-04T00:00:29.464Z,11.97
2019-04-04T00:02:55.430Z,11.23
2019-04-04T00:05:21.561Z,11.33
2019-04-04T00:07:47.560Z,11.80
2019-04-04T00:10:13.410Z,8.47
2019-04-04T00:12:39.639Z,11.00
2019-04-04T00:15:05.786Z,11.40
2019-04-04T00:17:31.641Z,11.27
2019-04-04T00:19:59.011Z,11.87
2019-04-04T00:22:25.493Z,13.03
2019-04-04T00:24:51.466Z,12.40
2019-04-04T00:27:17.474Z,11.47
2019-04-04T00:29:43.400Z,11.50
2019-04-04T00:32:09.364Z,11.43
2019-04-04T00:34:35.270Z,12.43
2019-04-04T00:37:04.394Z,11.70
2019-04-04T00:39:29.331Z,13.17
2019-04-04T00:41:55.366Z,12.63
2019-04-04T00:44:23.082Z,12.63
2019-04-04T00:46:49.132Z,12.53
2019-04-04T00:49:15.151Z,13.10
2019-04-04T00:51:41.267Z,12.20
2019-04-04T00:54:07.204Z,11.57
2019-04-04T00:56:33.317Z,10.93
2019-04-04T00:58:59.274Z,10.43
2019-04-04T01:01:26.895Z,11.83
2019-04-04T01:03:53.078Z,10.03
2019-04-04T01:06:20.545Z,11.37
2019-04-04T01:08:46.623Z,11.80
2019-04-04T01:11:12.463Z,10.23
2019-04-04T01:13:38.752Z,11.63
2019-04-04T01:16:04.960Z,11.40
2019-04-04T01:18:31.020Z,11.40
2019-04-04T01:20:57.108Z,11.03
2019-04-04T01:23:23.042Z,10.50
2019-04-04T01:25:49.008Z,10.87
2019-04-04T01:28:14.985Z,11.70
2019-04-04T01:30:41.707Z,11.43
2019-04-04T01:33:08.738Z,9.33
2019-04-04T01:35:34.843Z,10.83
2019-04-04T01:38:00.800Z,11.30
2019-04-04T01:40:26.618Z,11.13
2019-04-04T01:42:52.528Z,9.90
2019-04-04T01:45:18.370Z,10.47
2019-04-04T01:47:47.643Z,10.17
2019-04-04T01:50:12.417Z,10.47
2019-04-04T01:52:38.475Z,10.30
2019-04-04T01:55:04.536Z,10.80
2019-04-04T01:57:30.515Z,10.70
2019-04-04T01:59:56.472Z,9.83
2019-04-04T02:02:22.492Z,9.90
2019-04-04T02:04:48.675Z,8.83
2019-04-04T02:07:14.650Z,9.23
2019-04-04T02:09:43.255Z,8.73
2019-04-04T02:12:08.637Z,8.53
2019-04-04T02:14:34.575Z,7.67
2019-04-04T02:17:00.455Z,8.50
2019-04-04T02:19:26.302Z,8.20
2019-04-04T02:21:52.133Z,7.50
2019-04-04T02:24:18.157Z,8.17
2019-04-04T02:26:44.092Z,7.87
2019-04-04T02:29:11.153Z,7.97
2019-04-04T02:31:53.772Z,8.67
2019-04-04T02:34:19.621Z,7.93
2019-04-04T02:36:48.775Z,8.07
2019-04-04T02:39:15.388Z,7.90
2019-04-04T02:41:41.411Z,8.30
2019-04-04T02:44:07.442Z,7.50
2019-04-04T02:46:33.546Z,7.73
2019-04-04T02:48:59.624Z,8.40
2019-04-04T02:51:25.483Z,8.03
2019-04-04T02:53:52.953Z,7.87
2019-04-04T02:56:18.958Z,7.70
2019-04-04T02:58:46.338Z,7.80
2019-04-04T03:01:12.939Z,6.87
2019-04-04T03:03:42.054Z,7.87
2019-04-04T03:06:07.007Z,7.17
2019-04-04T03:08:36.726Z,8.30
2019-04-04T03:11:00.991Z,8.60
2019-04-04T03:13:31.141Z,7.90
2019-04-04T03:15:55.053Z,8.20
2019-04-04T03:18:20.936Z,7.60
2019-04-04T03:20:50.373Z,8.47
2019-04-04T03:23:14.506Z,8.13
2019-04-04T03:25:40.445Z,8.53
2019-04-04T03:28:06.256Z,8.20
2019-04-04T03:30:32.099Z,8.63
2019-04-04T03:32:58.125Z,8.00
2019-04-04T03:35:27.987Z,8.97
2019-04-04T03:37:52.161Z,9.50
2019-04-04T03:40:18.270Z,8.40
2019-04-04T03:42:44.854Z,9.23
2019-04-04T03:45:11.065Z,8.93
2019-04-04T03:47:36.988Z,10.07
2019-04-04T03:50:04.812Z,8.37
2019-04-04T03:52:30.753Z,10.00
2019-04-04T03:54:56.722Z,10.63
2019-04-04T03:57:22.519Z,9.87
2019-04-04T03:59:48.359Z,11.37
2019-04-04T04:02:17.831Z,11.37
2019-04-04T04:04:42.111Z,9.87
2019-04-04T04:07:13.841Z,9.77
2019-04-04T04:09:37.134Z,9.17
2019-04-04T04:12:03.002Z,9.93
2019-04-04T04:14:28.847Z,10.33
2019-04-04T04:16:54.834Z,11.40
2019-04-04T04:19:24.028Z,10.90
2019-04-04T04:21:48.446Z,10.17
2019-04-04T04:24:14.412Z,7.73
2019-04-04T04:26:41.874Z,9.67
2019-04-04T04:29:08.128Z,10.50
2019-04-04T04:31:33.972Z,8.67
2019-04-04T04:34:01.697Z,8.37
2019-04-04T04:36:27.678Z,9.00
2019-04-04T04:38:58.848Z,9.50
2019-04-04T04:41:21.504Z,8.13
2019-04-04T04:43:47.415Z,8.73
2019-04-04T04:46:16.848Z,8.03
2019-04-04T04:48:41.036Z,8.70
2019-04-04T04:51:06.869Z,9.00
2019-04-04T04:53:32.780Z,8.37
2019-04-04T04:56:00.588Z,7.17
2019-04-04T04:58:26.445Z,9.00
2019-04-04T05:00:52.435Z,9.20
2019-04-04T05:03:18.266Z,8.63
2019-04-04T05:05:44.121Z,9.40
2019-04-04T05:08:10.690Z,9.23
2019-04-04T05:10:36.584Z,9.00
2019-04-04T05:13:02.568Z,8.60
2019-04-04T05:15:30.428Z,8.87
2019-04-04T05:17:56.429Z,9.03
2019-04-04T05:20:23.126Z,10.33
2019-04-04T05:22:50.507Z,9.80
2019-04-04T05:25:16.382Z,9.73
2019-04-04T05:27:42.222Z,9.00
2019-04-04T05:30:08.709Z,9.00
2019-04-04T05:32:34.629Z,9.20
2019-04-04T05:35:01.171Z,7.23
2019-04-04T05:37:28.720Z,8.03
2019-04-04T05:39:55.411Z,7.30
2019-04-04T05:42:21.459Z,8.03
2019-04-04T05:44:47.319Z,9.73
2019-04-04T05:47:13.137Z,8.53
2019-04-04T05:49:38.979Z,7.93
2019-04-04T05:52:04.962Z,7.37
2019-04-04T05:54:30.802Z,7.90
2019-04-04T05:56:56.685Z,9.03
2019-04-04T05:59:23.920Z,8.70
2019-04-04T06:01:50.388Z,7.70
2019-04-04T06:04:19.121Z,8.40
2019-04-04T06:06:44.251Z,6.87
2019-04-04T06:09:10.126Z,7.63
2019-04-04T06:11:35.975Z,7.50
2019-04-04T06:14:01.930Z,7.47
2019-04-04T06:16:27.744Z,7.27
2019-04-04T06:18:53.648Z,7.67
2019-04-04T06:21:19.486Z,7.20
2019-04-04T06:23:45.424Z,7.13
2019-04-04T06:26:11.302Z,8.03
2019-04-04T06:28:37.126Z,7.87
2019-04-04T06:31:03.196Z,6.30
2019-04-04T06:33:29.088Z,7.63
2019-04-04T06:35:54.933Z,7.80
2019-04-04T06:38:23.092Z,7.87
2019-04-04T06:40:48.812Z,8.10
2019-04-04T06:43:14.756Z,7.20
2019-04-04T06:45:40.770Z,7.53
2019-04-04T06:48:06.724Z,8.33
2019-04-04T06:50:32.608Z,8.97
2019-04-04T06:52:58.454Z,8.97
2019-04-04T06:55:24.310Z,9.70
2019-04-04T06:57:51.350Z,7.57
2019-04-04T07:00:18.578Z,10.00
2019-04-04T07:02:47.161Z,10.17
2019-04-04T07:05:14.311Z,10.63
2019-04-04T07:07:43.090Z,9.80
2019-04-04T07:10:08.811Z,9.13
2019-04-04T07:12:37.859Z,10.70
2019-04-04T07:15:06.280Z,10.97
2019-04-04T07:17:32.128Z,10.70
2019-04-04T07:19:57.977Z,10.70
2019-04-04T07:22:24.949Z,11.70
2019-04-04T07:24:51.407Z,10.70
2019-04-04T07:27:17.235Z,12.47
2019-04-04T07:29:43.526Z,12.50
2019-04-04T07:32:10.168Z,14.37
2019-04-04T07:34:36.194Z,15.03
2019-04-04T07:37:02.306Z,13.57
2019-04-04T07:39:31.994Z,12.70
2019-04-04T07:41:55.879Z,13.47
2019-04-04T07:44:23.291Z,15.73
2019-04-04T07:46:49.585Z,17.73
2019-04-04T07:49:15.528Z,17.77
2019-04-04T07:51:41.478Z,11.40
2019-04-04T07:54:08.036Z,10.07
2019-04-04T07:56:34.114Z,8.17
2019-04-04T07:59:00.113Z,5.97
2019-04-04T08:01:26.007Z,6.17
2019-04-04T08:03:51.880Z,7.17
2019-04-04T08:06:17.822Z,7.73
2019-04-04T08:08:43.651Z,7.40
2019-04-04T08:11:09.710Z,9.57
2019-04-04T08:13:35.574Z,5.07
2019-04-04T08:16:01.508Z,6.10
2019-04-04T08:18:27.476Z,6.43
2019-04-04T08:20:53.312Z,7.10
2019-04-04T08:23:19.291Z,6.27
2019-04-04T08:25:45.138Z,5.90
2019-04-04T08:28:10.980Z,5.27
2019-04-04T08:30:37.069Z,4.97
2019-04-04T08:33:02.908Z,3.93
2019-04-04T08:35:29.928Z,5.43
2019-04-04T08:37:55.924Z,4.50
2019-04-04T08:40:21.924Z,4.00
2019-04-04T08:42:47.823Z,3.47
2019-04-04T08:45:13.840Z,3.80
2019-04-04T08:47:39.669Z,5.20
2019-04-04T08:50:05.962Z,4.80
2019-04-04T08:52:32.018Z,5.70
2019-04-04T08:54:57.905Z,7.30
2019-04-04T08:57:23.977Z,9.30
2019-04-04T08:59:49.829Z,9.23
2019-04-04T09:02:15.740Z,10.77
2019-04-04T09:04:41.624Z,10.70
2019-04-04T09:07:07.497Z,9.53
2019-04-04T09:09:34.795Z,10.03
2019-04-04T09:12:02.091Z,9.93
2019-04-04T09:14:28.018Z,11.83
2019-04-04T09:16:54.128Z,12.40
2019-04-04T09:19:20.111Z,13.37
2019-04-04T09:21:45.937Z,14.03
2019-04-04T09:24:11.929Z,15.50
2019-04-04T09:26:39.587Z,15.73
2019-04-04T09:29:05.443Z,18.40
2019-04-04T09:31:31.310Z,17.43
2019-04-04T09:33:57.170Z,17.83
2019-04-04T09:36:23.043Z,18.57
2019-04-04T09:38:49.008Z,18.63
2019-04-04T09:41:15.102Z,16.50
2019-04-04T09:43:40.931Z,17.77
2019-04-04T09:46:06.830Z,18.87
2019-04-04T09:48:32.779Z,19.53
2019-04-04T09:50:58.590Z,19.87
2019-04-04T09:53:24.616Z,20.43
2019-04-04T09:55:50.746Z,19.23
2019-04-04T09:58:16.659Z,22.77
2019-04-04T10:00:42.959Z,19.00
2019-04-04T10:03:08.884Z,19.73
2019-04-04T10:05:35.173Z,18.33
2019-04-04T10:08:02.169Z,18.60
2019-04-04T10:10:28.238Z,15.80
2019-04-04T10:12:57.621Z,12.50
2019-04-04T10:15:23.668Z,11.50
2019-04-04T10:17:49.659Z,11.73
2019-04-04T10:20:15.653Z,11.17
2019-04-04T10:22:41.686Z,7.40
2019-04-04T10:25:07.735Z,7.80
2019-04-04T10:27:33.837Z,8.63
2019-04-04T10:29:59.931Z,7.30
2019-04-04T10:32:25.809Z,8.27
2019-04-04T10:34:51.819Z,7.87
2019-04-04T10:37:17.715Z,8.30
2019-04-04T10:39:43.598Z,6.50
